createdAt,value
2022-12-09T00:00:27.259Z,-5.06
2022-12-09T00:01:27.384Z,-4.94
2022-12-09T00:02:27.375Z,-4.5
2022-12-09T00:03:27.438Z,-4.5
2022-12-09T00:04:27.616Z,-4.33
2022-12-09T00:05:27.363Z,-4.22
2022-12-09T00:06:27.550Z,-4.06
2022-12-09T00:07:27.259Z,-4.33
2022-12-09T00:08:27.312Z,-4.22
2022-12-09T00:09:27.391Z,-4.33
2022-12-09T00:10:27.279Z,-4.33
2022-12-09T00:11:27.272Z,-3.89
2022-12-09T00:12:27.478Z,-4.22
2022-12-09T00:13:27.352Z,-4.5
2022-12-09T00:14:27.526Z,-4.33
2022-12-09T00:15:27.360Z,-4.61
2022-12-09T00:16:27.445Z,-4.5
2022-12-09T00:17:27.361Z,-4.33
2022-12-09T00:18:27.355Z,-4.33
2022-12-09T00:19:27.309Z,-4.61
2022-12-09T00:20:27.274Z,-4.33
2022-12-09T00:21:27.280Z,-4.33
2022-12-09T00:22:27.308Z,-4.61
2022-12-09T00:23:27.278Z,-4.33
2022-12-09T00:24:27.283Z,-4.5
2022-12-09T00:25:27.297Z,-4.94
2022-12-09T00:26:27.541Z,-4.33
2022-12-09T00:27:27.344Z,-4.33
2022-12-09T00:28:27.320Z,-4.33
2022-12-09T00:29:27.301Z,-4.33
2022-12-09T00:30:27.282Z,-4.33
2022-12-09T00:31:27.640Z,-4.33
2022-12-09T00:32:27.362Z,-4.33
2022-12-09T00:33:27.338Z,-4.5
2022-12-09T00:34:27.497Z,-4.61
2022-12-09T00:35:27.540Z,-4.5
2022-12-09T00:36:27.338Z,-4.33
2022-12-09T00:37:27.349Z,-4.5
2022-12-09T00:38:27.294Z,-4.33
2022-12-09T00:39:27.465Z,-4.33
2022-12-09T00:40:27.292Z,-4.5
2022-12-09T00:41:27.423Z,-4.78
2022-12-09T00:42:27.326Z,-4.5
2022-12-09T00:43:27.302Z,-4.33
2022-12-09T00:44:27.549Z,-4.33
2022-12-09T00:45:27.299Z,-4.5
2022-12-09T00:46:27.335Z,-4.22
2022-12-09T00:47:27.593Z,-4.06
2022-12-09T00:48:27.341Z,-3.89
2022-12-09T00:49:27.477Z,-4.22
2022-12-09T00:50:27.307Z,-4.06
2022-12-09T00:51:27.334Z,-3.89
2022-12-09T00:52:27.352Z,-3.89
2022-12-09T00:53:27.595Z,-3.89
2022-12-09T00:54:27.581Z,-4.33
2022-12-09T00:55:27.443Z,-4.5
2022-12-09T00:56:27.314Z,-4.22
2022-12-09T00:57:27.344Z,-4.61
2022-12-09T00:58:27.318Z,-4.33
2022-12-09T00:59:27.463Z,-4.33
2022-12-09T01:00:27.308Z,-4.5
2022-12-09T01:01:27.603Z,-4.5
2022-12-09T01:02:27.631Z,-3.89
2022-12-09T01:03:27.604Z,-3.89
2022-12-09T01:04:27.353Z,-4.22
2022-12-09T01:05:27.306Z,-4.06
2022-12-09T01:06:27.532Z,-3.89
2022-12-09T01:07:27.465Z,-3.72
2022-12-09T01:08:27.422Z,-3.89
2022-12-09T01:09:27.395Z,-3.44
2022-12-09T01:10:27.508Z,-3.89
2022-12-09T01:11:27.425Z,-3.89
2022-12-09T01:12:27.318Z,-4.06
2022-12-09T01:13:27.577Z,-4.06
2022-12-09T01:14:27.396Z,-4.33
2022-12-09T01:15:27.392Z,-3.89
2022-12-09T01:16:27.496Z,-4.06
2022-12-09T01:17:27.376Z,-4.22
2022-12-09T01:18:27.405Z,-4.22
2022-12-09T01:19:27.431Z,-4.33
2022-12-09T01:20:27.506Z,-3.89
2022-12-09T01:21:27.345Z,-4.06
2022-12-09T01:22:27.315Z,-3.61
2022-12-09T01:23:27.319Z,-3.72
2022-12-09T01:24:27.350Z,-3.61
2022-12-09T01:25:27.311Z,-3.61
2022-12-09T01:26:27.323Z,-3.72
2022-12-09T01:27:27.321Z,-4.22
2022-12-09T01:28:27.656Z,-4.06
2022-12-09T01:29:27.623Z,-4.33
2022-12-09T01:30:27.330Z,-4.61
2022-12-09T01:31:27.433Z,-5.06
2022-12-09T01:32:27.595Z,-4.61
2022-12-09T01:33:27.501Z,-4.61
2022-12-09T01:34:27.438Z,-5.06
2022-12-09T01:35:27.317Z,-4.78
2022-12-09T01:36:27.337Z,-4.33
2022-12-09T01:37:27.640Z,-4.33
2022-12-09T01:38:27.323Z,-4.33
2022-12-09T01:39:27.323Z,-4.78
2022-12-09T01:40:27.481Z,-4.33
2022-12-09T01:41:27.450Z,-4.33
2022-12-09T01:42:27.375Z,-4.5
2022-12-09T01:43:27.380Z,-4.33
2022-12-09T01:44:27.428Z,-4.5
2022-12-09T01:45:27.348Z,-4.06
2022-12-09T01:46:27.491Z,-3.72
2022-12-09T01:47:27.387Z,-4.06
2022-12-09T01:48:27.398Z,-4.06
2022-12-09T01:49:27.635Z,-4.22
2022-12-09T01:50:27.363Z,-4.33
2022-12-09T01:51:27.590Z,-3.89
2022-12-09T01:52:27.443Z,-4.06
2022-12-09T01:53:27.335Z,-3.89
2022-12-09T01:54:27.380Z,-4.06
2022-12-09T01:55:27.367Z,-4.22
2022-12-09T01:56:27.360Z,-4.06
2022-12-09T01:57:27.457Z,-4.22
2022-12-09T01:58:27.331Z,-3.89
2022-12-09T01:59:27.660Z,-4.61
2022-12-09T02:00:27.387Z,-3.89
2022-12-09T02:01:27.420Z,-3.89
2022-12-09T02:02:27.372Z,-3.72
2022-12-09T02:03:27.771Z,-4.22
2022-12-09T02:04:27.570Z,-4.06
2022-12-09T02:05:27.508Z,-4.06
2022-12-09T02:06:27.480Z,-4.22
2022-12-09T02:07:27.364Z,-3.89
2022-12-09T02:08:27.371Z,-4.5
2022-12-09T02:09:27.689Z,-4.22
2022-12-09T02:10:27.433Z,-4.06
2022-12-09T02:11:27.353Z,-4.33
2022-12-09T02:12:27.364Z,-4.22
2022-12-09T02:13:27.405Z,-4.06
2022-12-09T02:14:27.330Z,-4.5
2022-12-09T02:15:27.353Z,-4.22
2022-12-09T02:16:27.588Z,-4.22
2022-12-09T02:17:27.461Z,-4.06
2022-12-09T02:18:27.576Z,-4.06
2022-12-09T02:19:27.350Z,-4.06
2022-12-09T02:20:27.590Z,-3.89
2022-12-09T02:21:27.324Z,-4.33
2022-12-09T02:22:27.353Z,-4.33
2022-12-09T02:23:27.476Z,-4.06
2022-12-09T02:24:27.440Z,-4.06
2022-12-09T02:25:27.683Z,-4.22
2022-12-09T02:26:27.367Z,-4.33
2022-12-09T02:27:27.615Z,-4.78
2022-12-09T02:28:27.677Z,-4.33
2022-12-09T02:29:27.626Z,-4.33
2022-12-09T02:30:27.329Z,-4.33
2022-12-09T02:31:27.490Z,-4.33
2022-12-09T02:32:27.491Z,-4.94
2022-12-09T02:33:27.565Z,-4.5
2022-12-09T02:34:27.487Z,-4.33
2022-12-09T02:35:27.367Z,-4.33
2022-12-09T02:36:27.324Z,-4.33
2022-12-09T02:37:27.357Z,-4.5
2022-12-09T02:38:27.599Z,-4.22
2022-12-09T02:39:27.328Z,-4.33
2022-12-09T02:40:27.510Z,-4.78
2022-12-09T02:41:27.597Z,-4.33
2022-12-09T02:42:27.382Z,-4.22
2022-12-09T02:43:27.426Z,-4.22
2022-12-09T02:44:27.374Z,-4.33
2022-12-09T02:45:27.345Z,-3.89
2022-12-09T02:46:27.697Z,-4.22
2022-12-09T02:47:27.451Z,-3.89
2022-12-09T02:48:27.631Z,-4.22
2022-12-09T02:49:27.439Z,-4.22
2022-12-09T02:50:27.379Z,-4.06
2022-12-09T02:51:27.377Z,-4.22
2022-12-09T02:52:27.560Z,-4.33
2022-12-09T02:53:27.346Z,-4.33
2022-12-09T02:54:27.506Z,-4.33
2022-12-09T02:55:27.364Z,-4.5
2022-12-09T02:56:27.344Z,-4.61
2022-12-09T02:57:27.515Z,-4.61
2022-12-09T02:58:27.380Z,-4.33
2022-12-09T02:59:27.355Z,-4.5
2022-12-09T03:00:27.706Z,-4.33
2022-12-09T03:01:27.456Z,-4.22
2022-12-09T03:02:27.452Z,-4.22
2022-12-09T03:03:27.536Z,-4.22
2022-12-09T03:04:27.400Z,-4.06
2022-12-09T03:05:27.486Z,-3.89
2022-12-09T03:06:27.718Z,-3.89
2022-12-09T03:07:27.391Z,-3.89
2022-12-09T03:08:27.652Z,-3.89
2022-12-09T03:09:27.465Z,-3.89
2022-12-09T03:10:27.630Z,-4.06
2022-12-09T03:11:27.336Z,-3.72
2022-12-09T03:12:27.545Z,-3.89
2022-12-09T03:13:27.390Z,-3.44
2022-12-09T03:14:27.353Z,-3.44
2022-12-09T03:15:27.575Z,-3.72
2022-12-09T03:16:27.399Z,-3.89
2022-12-09T03:17:27.410Z,-3.89
2022-12-09T03:18:27.347Z,-4.06
2022-12-09T03:19:27.394Z,-4.22
2022-12-09T03:20:27.617Z,-3.89
2022-12-09T03:21:27.375Z,-3.89
2022-12-09T03:22:27.351Z,-4.06
2022-12-09T03:23:27.355Z,-3.89
2022-12-09T03:24:27.384Z,-4.06
2022-12-09T03:25:27.551Z,-3.89
2022-12-09T03:26:27.512Z,-3.89
2022-12-09T03:27:27.357Z,-3.89
2022-12-09T03:28:27.391Z,-3.89
2022-12-09T03:29:27.524Z,-3.89
2022-12-09T03:30:27.436Z,-3.89
2022-12-09T03:31:27.827Z,-3.44
2022-12-09T03:32:27.544Z,-3.44
2022-12-09T03:33:27.413Z,-3.44
2022-12-09T03:34:27.358Z,-4.06
2022-12-09T03:35:27.431Z,-3.89
2022-12-09T03:36:27.666Z,-3.89
2022-12-09T03:37:27.564Z,-4.06
2022-12-09T03:38:27.623Z,-4.22
2022-12-09T03:39:27.391Z,-3.89
2022-12-09T03:40:27.622Z,-4.06
2022-12-09T03:41:27.377Z,-4.06
2022-12-09T03:42:27.379Z,-3.89
2022-12-09T03:43:27.666Z,-4.5
2022-12-09T03:44:27.692Z,-4.06
2022-12-09T03:45:27.674Z,-3.89
2022-12-09T03:46:27.527Z,-4.06
2022-12-09T03:47:27.763Z,-4.22
2022-12-09T03:48:27.388Z,-4.06
2022-12-09T03:49:27.714Z,-4.22
2022-12-09T03:50:27.398Z,-4.33
2022-12-09T03:51:27.526Z,-4.06
2022-12-09T03:52:27.652Z,-4.33
2022-12-09T03:53:27.678Z,-3.89
2022-12-09T03:54:27.659Z,-3.89
2022-12-09T03:55:27.394Z,-4.61
2022-12-09T03:56:27.433Z,-4.06
2022-12-09T03:57:27.391Z,-4.06
2022-12-09T03:58:27.408Z,-3.89
2022-12-09T03:59:27.451Z,-4.33
2022-12-09T04:00:27.624Z,-4.5
2022-12-09T04:01:27.552Z,-4.78
2022-12-09T04:02:27.595Z,-4.33
2022-12-09T04:03:27.557Z,-4.33
2022-12-09T04:04:27.886Z,-4.33
2022-12-09T04:05:27.777Z,-4.33
2022-12-09T04:06:27.721Z,-4.33
2022-12-09T04:07:27.407Z,-4.33
2022-12-09T04:08:27.793Z,-4.33
2022-12-09T04:09:27.832Z,-4.22
2022-12-09T04:10:27.700Z,-4.33
2022-12-09T04:11:27.423Z,-4.22
2022-12-09T04:12:27.671Z,-4.06
2022-12-09T04:13:27.576Z,-3.89
2022-12-09T04:14:27.639Z,-4.22
2022-12-09T04:15:27.532Z,-4.33
2022-12-09T04:16:27.730Z,-4.06
2022-12-09T04:17:27.522Z,-4.33
2022-12-09T04:18:27.623Z,-3.89
2022-12-09T04:19:27.742Z,-4.06
2022-12-09T04:20:27.477Z,-4.22
2022-12-09T04:21:27.467Z,-4.06
2022-12-09T04:22:27.538Z,-4.22
2022-12-09T04:23:27.457Z,-4.06
2022-12-09T04:24:27.505Z,-4.06
2022-12-09T04:25:27.525Z,-4.06
2022-12-09T04:26:27.502Z,-4.06
2022-12-09T04:27:27.504Z,-4.33
2022-12-09T04:28:27.436Z,-4.78
2022-12-09T04:29:27.536Z,-4.5
2022-12-09T04:30:27.490Z,-4.61
2022-12-09T04:31:27.564Z,-4.78
2022-12-09T04:32:27.560Z,-4.33
2022-12-09T04:33:27.745Z,-4.5
2022-12-09T04:34:27.792Z,-4.33
2022-12-09T04:35:27.626Z,-4.5
2022-12-09T04:36:27.446Z,-4.5
2022-12-09T04:37:27.458Z,-4.5
2022-12-09T04:38:27.631Z,-4.22
2022-12-09T04:39:27.607Z,-4.33
2022-12-09T04:40:27.692Z,-4.5
2022-12-09T04:41:27.797Z,-4.22
2022-12-09T04:42:27.781Z,-3.89
2022-12-09T04:43:27.496Z,-4.06
2022-12-09T04:44:27.469Z,-4.22
2022-12-09T04:45:27.471Z,-4.33
2022-12-09T04:46:27.649Z,-4.5
2022-12-09T04:47:27.876Z,-4.33
2022-12-09T04:48:27.451Z,-4.33
2022-12-09T04:49:27.606Z,-4.33
2022-12-09T04:50:27.459Z,-4.33
2022-12-09T04:51:27.465Z,-4.06
2022-12-09T04:52:27.616Z,-4.22
2022-12-09T04:53:27.473Z,-3.89
2022-12-09T04:54:27.623Z,-4.5
2022-12-09T04:55:27.497Z,-4.22
2022-12-09T04:56:27.505Z,-4.61
2022-12-09T04:57:27.793Z,-4.5
2022-12-09T04:58:27.681Z,-4.5
2022-12-09T04:59:27.672Z,-4.78
2022-12-09T05:00:27.553Z,-4.33
2022-12-09T05:01:31.078Z,-4.5
2022-12-09T05:02:27.634Z,-4.06
2022-12-09T05:03:27.598Z,-4.22
2022-12-09T05:04:27.993Z,-4.5
2022-12-09T05:05:27.775Z,-4.33
2022-12-09T05:06:27.676Z,-4.78
2022-12-09T05:07:27.670Z,-4.61
2022-12-09T05:08:31.304Z,-4.78
2022-12-09T05:09:27.823Z,-4.61
2022-12-09T05:10:27.930Z,-4.33
2022-12-09T05:11:27.681Z,-4.5
2022-12-09T05:12:27.572Z,-4.5
2022-12-09T05:13:27.547Z,-4.61
2022-12-09T05:14:27.602Z,-4.5
2022-12-09T05:15:27.608Z,-4.22
2022-12-09T05:16:27.840Z,-4.33
2022-12-09T05:17:27.660Z,-4.33
2022-12-09T05:18:27.630Z,-4.5
2022-12-09T05:19:27.943Z,-4.06
2022-12-09T05:20:27.531Z,-3.89
2022-12-09T05:21:27.616Z,-4.33
2022-12-09T05:22:27.755Z,-4.06
2022-12-09T05:23:27.704Z,-4.22
2022-12-09T05:24:27.830Z,-4.06
2022-12-09T05:25:27.613Z,-4.22
2022-12-09T05:26:27.744Z,-4.33
2022-12-09T05:27:27.651Z,-4.06
2022-12-09T05:28:27.560Z,-4.22
2022-12-09T05:29:27.641Z,-3.89
2022-12-09T05:30:27.643Z,-3.89
2022-12-09T05:31:27.605Z,-4.22
2022-12-09T05:32:27.620Z,-3.89
2022-12-09T05:33:27.915Z,-3.89
2022-12-09T05:34:27.694Z,-3.89
2022-12-09T05:35:27.893Z,-4.06
2022-12-09T05:36:27.769Z,-4.06
2022-12-09T05:37:27.564Z,-4.33
2022-12-09T05:38:27.573Z,-3.89
2022-12-09T05:39:27.943Z,-4.06
2022-12-09T05:40:27.568Z,-4.06
2022-12-09T05:41:27.909Z,-3.89
2022-12-09T05:42:27.589Z,-3.89
2022-12-09T05:43:27.719Z,-3.89
2022-12-09T05:44:27.891Z,-4.22
2022-12-09T05:45:27.898Z,-3.89
2022-12-09T05:46:27.661Z,-4.06
2022-12-09T05:47:27.724Z,-4.22
2022-12-09T05:48:27.940Z,-3.89
2022-12-09T05:49:27.746Z,-3.89
2022-12-09T05:50:27.930Z,-4.22
2022-12-09T05:51:27.844Z,-3.89
2022-12-09T05:52:27.897Z,-3.72
2022-12-09T05:53:27.771Z,-3.89
2022-12-09T05:54:27.995Z,-3.89
2022-12-09T05:55:27.737Z,-3.89
2022-12-09T05:56:27.721Z,-3.72
2022-12-09T05:57:27.691Z,-3.72
2022-12-09T05:58:27.665Z,-3.89
2022-12-09T05:59:27.610Z,-3.89
2022-12-09T06:00:27.962Z,-3.61
2022-12-09T06:01:27.903Z,-3.44
2022-12-09T06:02:27.801Z,-4.06
2022-12-09T06:03:28.152Z,-3.72
2022-12-09T06:04:27.928Z,-4.06
2022-12-09T06:05:28.080Z,-3.72
2022-12-09T06:06:27.973Z,-3.72
2022-12-09T06:07:27.743Z,-4.06
2022-12-09T06:08:27.712Z,-3.72
2022-12-09T06:09:27.897Z,-3.72
2022-12-09T06:10:27.935Z,-3.72
2022-12-09T06:11:27.821Z,-3.89
2022-12-09T06:12:27.996Z,-3.89
2022-12-09T06:13:27.956Z,-4.33
2022-12-09T06:14:27.588Z,-3.72
2022-12-09T06:15:33.053Z,-3.89
2022-12-09T06:16:28.132Z,-3.89
2022-12-09T06:17:27.771Z,-3.89
2022-12-09T06:18:27.655Z,-4.06
2022-12-09T06:19:27.717Z,-3.89
2022-12-09T06:20:27.847Z,-3.72
2022-12-09T06:21:27.949Z,-3.72
2022-12-09T06:22:27.626Z,-3.89
2022-12-09T06:23:27.683Z,-3.61
2022-12-09T06:24:27.608Z,-3.44
2022-12-09T06:25:27.883Z,-3.72
2022-12-09T06:26:27.653Z,-3.44
2022-12-09T06:27:27.654Z,-3.72
2022-12-09T06:28:27.919Z,-3.61
2022-12-09T06:29:27.695Z,-3.89
2022-12-09T06:30:27.958Z,-3.72
2022-12-09T06:31:27.656Z,-3.72
2022-12-09T06:32:27.909Z,-3.72
2022-12-09T06:33:53.960Z,-3.72
2022-12-09T06:34:27.734Z,-3.61
2022-12-09T06:35:27.740Z,-3.44
2022-12-09T06:36:28.021Z,-3.61
2022-12-09T06:37:27.577Z,-3.61
2022-12-09T06:38:27.827Z,-3.61
2022-12-09T06:39:27.901Z,-3.44
2022-12-09T06:40:27.839Z,-3.61
2022-12-09T06:41:27.717Z,-3.44
2022-12-09T06:42:27.735Z,-3.44
2022-12-09T06:43:27.773Z,-3.61
2022-12-09T06:44:27.974Z,-3.44
2022-12-09T06:45:27.709Z,-3.44
2022-12-09T06:46:28.156Z,-3.61
2022-12-09T06:47:28.141Z,-3.28
2022-12-09T06:48:27.920Z,-3.28
2022-12-09T06:49:27.793Z,-3.44
2022-12-09T06:50:27.989Z,-3.61
2022-12-09T06:51:27.642Z,-3.61
2022-12-09T06:52:27.626Z,-3.61
2022-12-09T06:53:27.718Z,-3.72
2022-12-09T06:54:27.841Z,-3.61
2022-12-09T06:55:28.048Z,-3.44
2022-12-09T06:56:27.684Z,-3.72
2022-12-09T06:57:27.989Z,-3.61
2022-12-09T06:58:27.823Z,-3.72
2022-12-09T06:59:27.662Z,-3.61
2022-12-09T07:00:27.758Z,-3.72
2022-12-09T07:01:27.884Z,-3.72
2022-12-09T07:02:31.313Z,-3.44
2022-12-09T07:03:28.115Z,-3.44
2022-12-09T07:04:28.139Z,-3.72
2022-12-09T07:05:27.828Z,-3.17
2022-12-09T07:06:27.771Z,-3.28
2022-12-09T07:07:27.641Z,-3.17
2022-12-09T07:08:27.700Z,-3.44
2022-12-09T07:09:27.821Z,-3.28
2022-12-09T07:10:28.057Z,-3.17
2022-12-09T07:11:28.160Z,-3.28
2022-12-09T07:12:27.860Z,-3.44
2022-12-09T07:13:27.668Z,-3.61
2022-12-09T07:14:28.146Z,-3.72
2022-12-09T07:15:27.677Z,-3.44
2022-12-09T07:16:27.809Z,-3.44
2022-12-09T07:17:27.982Z,-3.44
2022-12-09T07:18:27.796Z,-3.72
2022-12-09T07:19:27.741Z,-3.28
2022-12-09T07:20:27.730Z,-3.28
2022-12-09T07:21:27.768Z,-3.44
2022-12-09T07:22:27.778Z,-3.06
2022-12-09T07:23:27.809Z,-3.28
2022-12-09T07:24:27.845Z,-3.44
2022-12-09T07:25:27.898Z,-3.06
2022-12-09T07:26:28.018Z,-3.28
2022-12-09T07:27:28.037Z,-3.44
2022-12-09T07:28:27.635Z,-3.06
2022-12-09T07:29:27.697Z,-3.06
2022-12-09T07:30:27.792Z,-3.06
2022-12-09T07:31:27.831Z,-3.44
2022-12-09T07:32:28.127Z,-3.61
2022-12-09T07:33:27.899Z,-3.28
2022-12-09T07:34:28.193Z,-3.06
2022-12-09T07:35:27.785Z,-3.06
2022-12-09T07:36:27.935Z,-3.17
2022-12-09T07:37:27.720Z,-3.06
2022-12-09T07:38:27.787Z,-3.17
2022-12-09T07:39:28.064Z,-3.06
2022-12-09T07:40:28.062Z,-3.06
2022-12-09T07:41:28.170Z,-3.17
2022-12-09T07:42:27.726Z,-3.06
2022-12-09T07:43:27.707Z,-3.06
2022-12-09T07:44:28.150Z,-3.17
2022-12-09T07:45:27.866Z,-3.06
2022-12-09T07:46:28.054Z,-3.17
2022-12-09T07:47:28.076Z,-3.06
2022-12-09T07:48:27.761Z,-3.06
2022-12-09T07:49:28.206Z,-3.28
2022-12-09T07:50:27.826Z,-3.06
2022-12-09T07:51:27.762Z,-3.06
2022-12-09T07:52:27.698Z,-3.06
2022-12-09T07:53:27.760Z,-3.06
2022-12-09T07:54:27.745Z,-3.44
2022-12-09T07:55:27.681Z,-3.17
2022-12-09T07:56:27.756Z,-3.17
2022-12-09T07:57:27.875Z,-3.17
2022-12-09T07:58:27.652Z,-3.06
2022-12-09T07:59:27.778Z,-2.89
2022-12-09T08:00:28.045Z,-3.17
2022-12-09T08:01:27.799Z,-2.89
2022-12-09T08:02:27.717Z,-3.28
2022-12-09T08:03:27.784Z,-3.28
2022-12-09T08:04:28.193Z,-3.17
2022-12-09T08:05:28.310Z,-3.44
2022-12-09T08:06:28.282Z,-3.06
2022-12-09T08:07:28.237Z,-3.17
2022-12-09T08:08:27.818Z,-2.89
2022-12-09T08:09:28.281Z,-3.06
2022-12-09T08:10:28.107Z,-2.89
2022-12-09T08:11:27.937Z,-2.72
2022-12-09T08:12:27.817Z,-2.61
2022-12-09T08:13:27.946Z,-2.61
2022-12-09T08:14:27.739Z,-2.72
2022-12-09T08:15:27.921Z,-2.61
2022-12-09T08:16:27.879Z,-2.61
2022-12-09T08:17:27.811Z,-2.44
2022-12-09T08:18:28.141Z,-2.61
2022-12-09T08:19:27.906Z,-2.61
2022-12-09T08:20:29.520Z,-2.72
2022-12-09T08:21:27.772Z,-2.61
2022-12-09T08:22:27.726Z,-2.61
2022-12-09T08:23:27.739Z,-2.61
2022-12-09T08:24:28.096Z,-2.61
2022-12-09T08:25:27.965Z,-2.44
2022-12-09T08:26:27.871Z,-2.28
2022-12-09T08:27:28.118Z,-2.28
2022-12-09T08:28:27.781Z,-2.17
2022-12-09T08:29:27.821Z,-2.44
2022-12-09T08:30:28.343Z,-2.17
2022-12-09T08:31:27.901Z,-2.17
2022-12-09T08:32:27.885Z,-2.28
2022-12-09T08:33:27.835Z,-2
2022-12-09T08:34:27.793Z,-1.83
2022-12-09T08:35:28.130Z,-2.17
2022-12-09T08:36:28.356Z,-2.17
2022-12-09T08:37:27.925Z,-2.72
2022-12-09T08:38:27.797Z,-2.17
2022-12-09T08:39:27.792Z,-2.17
2022-12-09T08:40:28.000Z,-2
2022-12-09T08:41:28.113Z,-2.17
2022-12-09T08:42:28.009Z,-2
2022-12-09T08:43:27.736Z,-2.17
2022-12-09T08:44:27.884Z,-2.17
2022-12-09T08:45:27.950Z,-2.44
2022-12-09T08:46:27.796Z,-2.17
2022-12-09T08:47:27.928Z,-2.28
2022-12-09T08:48:28.053Z,-2.17
2022-12-09T08:49:28.245Z,-2.44
2022-12-09T08:50:28.208Z,-2.28
2022-12-09T08:51:27.969Z,-2.28
2022-12-09T08:52:27.696Z,-2.28
2022-12-09T08:53:27.824Z,-2.17
2022-12-09T08:54:28.120Z,-2
2022-12-09T08:55:27.869Z,-2.28
2022-12-09T08:56:27.877Z,-2.28
2022-12-09T08:57:28.141Z,-2.61
2022-12-09T08:58:28.070Z,-2.28
2022-12-09T08:59:27.799Z,-2.17
2022-12-09T09:00:27.753Z,-2.17
2022-12-09T09:01:27.866Z,-2
2022-12-09T09:02:28.185Z,-1.67
2022-12-09T09:03:28.041Z,-1.67
2022-12-09T09:04:28.028Z,-1.83
2022-12-09T09:05:28.016Z,-1.67
2022-12-09T09:06:27.948Z,-1.83
2022-12-09T09:07:27.953Z,-1.28
2022-12-09T09:08:28.189Z,-1.44
2022-12-09T09:09:27.929Z,-1.56
2022-12-09T09:10:27.889Z,-1.44
2022-12-09T09:11:27.897Z,-1.67
2022-12-09T09:12:27.909Z,-1.67
2022-12-09T09:13:27.871Z,-1.67
2022-12-09T09:14:27.798Z,-1.56
2022-12-09T09:15:28.260Z,-1.67
2022-12-09T09:16:28.279Z,-1.56
2022-12-09T09:17:28.203Z,-1.83
2022-12-09T09:18:27.890Z,-1.83
2022-12-09T09:19:27.938Z,-1.67
2022-12-09T09:20:28.153Z,-2
2022-12-09T09:21:27.879Z,-1.56
2022-12-09T09:22:27.946Z,-1.56
2022-12-09T09:23:28.153Z,-1.67
2022-12-09T09:24:28.200Z,-1.83
2022-12-09T09:25:27.966Z,-1.83
2022-12-09T09:26:28.134Z,-1.83
2022-12-09T09:27:27.813Z,-1.67
2022-12-09T09:28:31.441Z,-2.17
2022-12-09T09:29:27.806Z,-2.17
2022-12-09T09:30:28.024Z,-2.17
2022-12-09T09:31:28.252Z,-2.17
2022-12-09T09:32:28.076Z,-2.17
2022-12-09T09:33:28.129Z,-2.17
2022-12-09T09:34:28.004Z,-2.17
2022-12-09T09:35:27.896Z,-2.17
2022-12-09T09:36:27.798Z,-2.17
2022-12-09T09:37:27.850Z,-2.44
2022-12-09T09:38:28.256Z,-2.17
2022-12-09T09:39:28.062Z,-2.17
2022-12-09T09:40:28.146Z,-2.28
2022-12-09T09:41:27.906Z,-1.67
2022-12-09T09:42:27.842Z,-1.83
2022-12-09T09:43:27.837Z,-1.67
2022-12-09T09:44:28.095Z,-1.56
2022-12-09T09:45:28.123Z,-1.83
2022-12-09T09:46:27.943Z,-1.56
2022-12-09T09:47:30.415Z,-1.67
2022-12-09T09:48:28.157Z,-1.67
2022-12-09T09:49:27.977Z,-1.67
2022-12-09T09:50:28.444Z,-1.67
2022-12-09T09:51:27.981Z,-1.83
2022-12-09T09:52:28.220Z,-1.56
2022-12-09T09:53:28.215Z,-1.67
2022-12-09T09:54:28.058Z,-1.67
2022-12-09T09:55:27.881Z,-1.83
2022-12-09T09:56:27.873Z,-1.56
2022-12-09T09:57:28.323Z,-1.56
2022-12-09T09:58:27.926Z,-1.67
2022-12-09T09:59:27.908Z,-1.44
2022-12-09T10:00:28.043Z,-1.67
2022-12-09T10:01:28.005Z,-1.56
2022-12-09T10:02:28.429Z,-1.28
2022-12-09T10:03:28.007Z,-1.44
2022-12-09T10:04:27.979Z,-1.28
2022-12-09T10:05:28.206Z,-1.56
2022-12-09T10:06:28.102Z,-1.44
2022-12-09T10:07:28.119Z,-1.67
2022-12-09T10:08:28.040Z,-1.44
2022-12-09T10:09:28.353Z,-1.44
2022-12-09T10:10:28.401Z,-1.44
2022-12-09T10:11:28.259Z,-1.56
2022-12-09T10:12:28.200Z,-1.56
2022-12-09T10:13:28.453Z,-1.67
2022-12-09T10:14:28.380Z,-1.28
2022-12-09T10:15:28.066Z,-1.44
2022-12-09T10:16:27.958Z,-1.28
2022-12-09T10:17:28.087Z,-1.56
2022-12-09T10:18:28.125Z,-1.44
2022-12-09T10:19:28.350Z,-1.44
2022-12-09T10:20:28.487Z,-1.56
2022-12-09T10:21:28.201Z,-1.28
2022-12-09T10:22:28.035Z,-1.44
2022-12-09T10:23:28.009Z,-1.44
2022-12-09T10:24:28.447Z,-1.28
2022-12-09T10:25:28.372Z,-1.28
2022-12-09T10:26:28.241Z,-1.28
2022-12-09T10:27:27.942Z,-1.28
2022-12-09T10:28:27.877Z,-1.56
2022-12-09T10:29:27.859Z,-0.83
2022-12-09T10:30:33.537Z,-0.83
2022-12-09T10:31:28.111Z,-1.28
2022-12-09T10:32:28.035Z,-1.28
2022-12-09T10:33:28.365Z,-1.28
2022-12-09T10:34:28.384Z,-1.28
2022-12-09T10:35:28.049Z,-1.44
2022-12-09T10:36:32.303Z,-1
2022-12-09T10:37:28.307Z,-1.11
2022-12-09T10:38:28.173Z,-0.83
2022-12-09T10:39:27.992Z,-1.28
2022-12-09T10:40:28.326Z,-1.28
2022-12-09T10:41:28.236Z,-1.28
2022-12-09T10:42:33.321Z,-1.28
2022-12-09T10:43:28.057Z,-1.56
2022-12-09T10:44:28.323Z,-1.44
2022-12-09T10:45:40.305Z,-1.11
2022-12-09T10:46:28.345Z,-1.11
2022-12-09T10:47:28.024Z,-1.56
2022-12-09T10:48:32.364Z,-1.28
2022-12-09T10:49:28.008Z,-1.44
2022-12-09T10:50:28.223Z,-1.44
2022-12-09T10:51:28.135Z,-1.28
2022-12-09T10:52:28.286Z,-1.28
2022-12-09T10:53:27.986Z,-1.83
2022-12-09T10:54:28.332Z,-1.28
2022-12-09T10:55:27.885Z,-1.28
2022-12-09T10:56:28.269Z,-1.28
2022-12-09T10:57:28.235Z,-1.28
2022-12-09T10:58:28.301Z,-1.44
2022-12-09T10:59:27.954Z,-1.44
2022-12-09T11:00:33.149Z,-1.83
2022-12-09T11:01:27.976Z,-1.67
2022-12-09T11:02:27.983Z,-1.56
2022-12-09T11:03:28.073Z,-1.56
2022-12-09T11:04:28.307Z,-1.56
2022-12-09T11:05:28.646Z,-1.83
2022-12-09T11:06:28.507Z,-1.56
2022-12-09T11:07:28.138Z,-1.67
2022-12-09T11:08:28.434Z,-1.83
2022-12-09T11:09:28.093Z,-1.56
2022-12-09T11:10:28.203Z,-1.83
2022-12-09T11:11:27.993Z,-1.67
2022-12-09T11:12:30.114Z,-1.83
2022-12-09T11:13:28.761Z,-1.83
2022-12-09T11:14:28.008Z,-1.67
2022-12-09T11:15:27.966Z,-1.56
2022-12-09T11:16:28.006Z,-1.44
2022-12-09T11:17:28.375Z,-1.56
2022-12-09T11:18:28.204Z,-1.28
2022-12-09T11:19:28.462Z,-1.28
2022-12-09T11:20:28.388Z,-1.28
2022-12-09T11:21:28.164Z,-1.44
2022-12-09T11:22:28.104Z,-1.56
2022-12-09T11:23:28.082Z,-1.44
2022-12-09T11:24:28.440Z,-1.56
2022-12-09T11:25:28.060Z,-1.44
2022-12-09T11:26:27.945Z,-1.44
2022-12-09T11:27:28.156Z,-1.28
2022-12-09T11:28:28.368Z,-1.11
2022-12-09T11:29:27.954Z,-1.28
2022-12-09T11:30:29.007Z,-1.44
2022-12-09T11:31:29.885Z,-1.28
2022-12-09T11:32:28.372Z,-1.56
2022-12-09T11:33:28.180Z,-1.44
2022-12-09T11:34:28.163Z,-1.28
2022-12-09T11:35:28.079Z,-1.28
2022-12-09T11:36:29.737Z,-1.28
2022-12-09T11:37:28.025Z,-1.28
2022-12-09T11:38:27.929Z,-1.28
2022-12-09T11:39:27.934Z,-1.44
2022-12-09T11:40:27.942Z,-2
2022-12-09T11:41:27.934Z,-1.44
2022-12-09T11:42:27.933Z,-1.56
2022-12-09T11:43:27.942Z,-1.44
2022-12-09T11:44:27.933Z,-1.56
2022-12-09T11:45:27.945Z,-1.56
2022-12-09T11:46:27.982Z,-1.56
2022-12-09T11:47:27.931Z,-1.67
2022-12-09T11:48:33.875Z,-1.67
2022-12-09T11:49:27.942Z,-1.44
2022-12-09T11:50:27.939Z,-1.44
2022-12-09T11:51:27.941Z,-1.28
2022-12-09T11:52:27.935Z,-1.28
2022-12-09T11:53:27.968Z,-1.83
2022-12-09T11:54:27.932Z,-1.44
2022-12-09T11:55:27.944Z,-1.28
2022-12-09T11:56:27.952Z,-1.28
2022-12-09T11:57:27.946Z,-1.56
2022-12-09T11:58:27.944Z,-1.44
2022-12-09T11:59:27.939Z,-1
2022-12-09T12:00:27.950Z,-0.83
2022-12-09T12:01:27.952Z,-1
2022-12-09T12:02:27.975Z,-0.83
2022-12-09T12:03:27.975Z,-0.67
2022-12-09T12:04:27.946Z,-0.83
2022-12-09T12:05:27.948Z,-0.83
2022-12-09T12:06:27.950Z,-1.11
2022-12-09T12:07:27.949Z,-0.83
2022-12-09T12:08:28.045Z,-0.83
2022-12-09T12:09:27.981Z,-0.39
2022-12-09T12:10:27.951Z,-0.67
2022-12-09T12:11:27.955Z,-0.39
2022-12-09T12:12:27.964Z,-0.56
2022-12-09T12:13:27.967Z,-0.39
2022-12-09T12:14:27.957Z,-0.39
2022-12-09T12:15:27.959Z,-0.56
2022-12-09T12:16:27.961Z,-0.67
2022-12-09T12:17:27.997Z,-0.39
2022-12-09T12:18:27.960Z,-0.39
2022-12-09T12:19:27.955Z,-0.39
2022-12-09T12:20:27.955Z,-0.39
2022-12-09T12:21:27.960Z,-0.67
2022-12-09T12:22:27.968Z,-0.39
2022-12-09T12:23:27.955Z,-0.39
2022-12-09T12:24:27.971Z,-0.39
2022-12-09T12:25:27.984Z,-0.39
2022-12-09T12:26:27.966Z,-0.39
2022-12-09T12:27:27.971Z,-0.56
2022-12-09T12:28:27.956Z,-0.56
2022-12-09T12:29:27.962Z,-0.39
2022-12-09T12:30:27.955Z,-0.67
2022-12-09T12:31:28.038Z,-0.39
2022-12-09T12:32:27.968Z,-0.39
2022-12-09T12:34:00.164Z,-0.56
2022-12-09T12:34:28.006Z,-0.83
2022-12-09T12:35:27.969Z,-1
2022-12-09T12:36:27.965Z,-1.28
2022-12-09T12:37:27.975Z,-0.83
2022-12-09T12:38:27.965Z,-0.83
2022-12-09T12:39:27.974Z,-0.83
2022-12-09T12:40:27.965Z,-1
2022-12-09T12:41:28.015Z,-1.28
2022-12-09T12:42:27.970Z,-0.83
2022-12-09T12:43:27.972Z,-1.11
2022-12-09T12:44:27.966Z,-1.11
2022-12-09T12:45:28.026Z,-1.28
2022-12-09T12:46:28.039Z,-1.28
2022-12-09T12:47:27.968Z,-1
2022-12-09T12:48:28.003Z,-0.83
2022-12-09T12:49:27.966Z,-1
2022-12-09T12:50:27.974Z,-0.56
2022-12-09T12:51:27.979Z,-0.83
2022-12-09T12:52:57.007Z,-0.56
2022-12-09T12:53:27.975Z,-0.83
2022-12-09T12:54:27.982Z,-0.56
2022-12-09T12:55:27.983Z,-0.39